Schedule Details


Flight Number: CTN345
Departure: Sarajevo (LQSA) at 16:15
Arrival: Franjo Tudman (LDZA) at 17:05
Route: BOSNA L608 KOMAR L187 TEBLI

Weather Information
LQSA 242100Z 32003KT CAVOK 18/17 Q1022
LDZA 242100Z 33002KT CAVOK 22/18 Q1021 NOSIG
Schedule Frequency

Route Map